Time;durP1;ratioP1;P1;durP2;ratioP2;P2;SDS_P1;SDS_P2;PMS_P1;PMS_P2;Temp;Humidity;BMP_temperature;BMP_pressure;BME280_temperature;BME280_humidity;BME280_pressure;Samples;Min_cycle;Max_cycle;Signal;HPM_P1;HPM_P2
2021/11/13 00:01:31;;;;;;;67.28;32.95;;;;;;;3.01;86.83;100587.41;4977724;28;20041;-80
2021/11/13 00:03:59;;;;;;;74.57;34.25;;;;;;;2.95;86.53;100579.44;4995523;28;20041;-79
2021/11/13 00:06:25;;;;;;;61.88;30.50;;;;;;;2.89;86.76;100585.38;4995680;28;20034;-79
2021/11/13 00:08:51;;;;;;;55.80;28.65;;;;;;;2.84;86.58;100593.09;4995177;28;20027;-79
2021/11/13 00:11:17;;;;;;;67.85;33.13;;;;;;;2.75;87.26;100587.66;4998815;28;20512;-79
2021/11/13 00:13:43;;;;;;;67.32;32.97;;;;;;;2.74;87.29;100584.97;4994362;28;20038;-79
2021/11/13 00:16:09;;;;;;;66.80;31.98;;;;;;;2.70;87.05;100586.63;4994726;28;20106;-79
2021/11/13 00:18:35;;;;;;;65.10;32.63;;;;;;;2.64;87.02;100584.72;4977743;28;20061;-79
2021/11/13 00:21:02;;;;;;;57.92;30.60;;;;;;;2.61;86.98;100589.84;4990418;28;20069;-80
2021/11/13 00:23:28;;;;;;;62.83;30.75;;;;;;;2.57;86.96;100585.44;4994072;28;20386;-78
2021/11/13 00:25:53;;;;;;;73.63;31.02;;;;;;;2.50;86.39;100588.69;4994409;28;20085;-80
2021/11/13 00:28:19;;;;;;;64.53;29.95;;;;;;;2.30;85.94;100590.72;4994197;28;20493;-80
2021/11/13 00:30:44;;;;;;;61.38;31.35;;;;;;;2.22;86.90;100588.75;4994188;28;20053;-79
2021/11/13 00:33:11;;;;;;;66.47;32.47;;;;;;;2.18;87.28;100593.00;4976183;28;20030;-79
2021/11/13 00:35:37;;;;;;;70.63;33.92;;;;;;;2.19;87.70;100587.84;4976241;28;20042;-79
2021/11/13 00:38:03;;;;;;;57.28;31.30;;;;;;;2.21;87.81;100587.00;4994089;28;20129;-79
2021/11/13 00:40:28;;;;;;;54.53;28.85;;;;;;;2.23;87.59;100580.09;4994022;28;20038;-79
2021/11/13 00:42:54;;;;;;;66.25;31.50;;;;;;;2.21;87.31;100587.00;4993851;28;20517;-79
2021/11/13 00:45:19;;;;;;;64.28;30.23;;;;;;;2.16;87.67;100592.94;4994253;28;20080;-79
2021/11/13 00:47:44;;;;;;;59.63;28.20;;;;;;;2.12;87.54;100587.59;4994054;28;20030;-78
2021/11/13 00:50:12;;;;;;;60.05;30.70;;;;;;;2.10;87.48;100590.19;4994343;28;20081;-80
2021/11/13 00:52:38;;;;;;;71.68;32.80;;;;;;;2.12;87.90;100608.44;4990249;28;20041;-80
2021/11/13 00:55:03;;;;;;;51.17;27.27;;;;;;;2.10;87.81;100595.41;4989627;28;20030;-79
2021/11/13 00:57:29;;;;;;;74.90;31.90;;;;;;;2.09;87.49;100590.13;4994186;28;20085;-79
2021/11/13 00:59:54;;;;;;;66.38;31.75;;;;;;;2.04;88.02;100592.59;4976631;28;20042;-79
2021/11/13 01:02:20;;;;;;;57.40;27.63;;;;;;;2.02;87.88;100590.78;4994451;28;20148;-79
2021/11/13 01:04:47;;;;;;;56.72;28.23;;;;;;;1.96;87.00;100588.88;4993520;28;20030;-79
2021/11/13 01:07:13;;;;;;;73.53;33.97;;;;;;;1.98;87.74;100595.03;4994403;28;20113;-79
2021/11/13 01:09:39;;;;;;;62.05;30.77;;;;;;;2.01;88.20;100589.03;4976533;28;20137;-80
2021/11/13 01:12:05;;;;;;;64.53;30.67;;;;;;;2.05;87.79;100588.28;4976668;28;20125;-79
2021/11/13 01:14:39;;;;;;;60.17;29.98;;;;;;;2.05;87.35;100583.97;4976354;28;20038;-79
2021/11/13 01:17:06;;;;;;;52.90;27.80;;;;;;;2.04;87.09;100584.78;4976719;28;20052;-79
2021/11/13 01:19:32;;;;;;;62.30;30.60;;;;;;;2.04;87.18;100582.19;4993707;28;20117;-79
2021/11/13 01:21:57;;;;;;;54.97;27.73;;;;;;;2.02;87.25;100582.97;4993978;28;20524;-80
2021/11/13 01:24:22;;;;;;;62.42;30.23;;;;;;;2.02;86.77;100583.88;4993413;28;20034;-80
2021/11/13 01:26:49;;;;;;;61.00;29.77;;;;;;;1.98;87.12;100590.69;4993691;28;20161;-79
2021/11/13 01:29:15;;;;;;;56.22;28.33;;;;;;;1.98;86.85;100595.03;4993457;28;20038;-79
2021/11/13 01:31:40;;;;;;;58.13;29.30;;;;;;;1.95;86.88;100595.81;4993495;28;20512;-79
2021/11/13 01:34:06;;;;;;;60.40;30.23;;;;;;;1.95;87.24;100601.03;4993180;28;20644;-79
2021/11/13 01:36:31;;;;;;;58.75;27.30;;;;;;;1.93;86.87;100586.19;4976185;28;20070;-79
2021/11/13 01:38:57;;;;;;;58.40;28.65;;;;;;;1.91;87.36;100577.44;4975709;28;20038;-80
2021/11/13 01:41:23;;;;;;;56.85;27.92;;;;;;;1.88;86.93;100574.75;4959751;28;20034;-79
2021/11/13 01:43:49;;;;;;;45.30;25.17;;;;;;;1.84;86.68;100588.53;4992899;28;20470;-79
2021/11/13 01:46:14;;;;;;;54.38;26.23;;;;;;;1.72;86.38;100589.91;4976153;28;20080;-79
2021/11/13 01:48:40;;;;;;;61.38;25.65;;;;;;;1.65;86.13;100585.38;4975524;28;20413;-79
2021/11/13 01:51:27;;;;;;;56.03;24.83;;;;;;;1.53;86.25;100585.00;4975860;28;20105;-79
2021/11/13 01:53:54;;;;;;;67.95;29.58;;;;;;;1.47;87.83;100579.59;4990310;28;20485;-79
2021/11/13 01:56:21;;;;;;;50.10;25.77;;;;;;;1.47;87.69;100584.81;4993190;28;20062;-80
2021/11/13 01:58:49;;;;;;;58.20;27.73;;;;;;;1.49;87.54;100575.31;4992953;28;20567;-79
2021/11/13 02:01:15;;;;;;;63.53;30.13;;;;;;;1.50;87.73;100580.56;4993163;28;20397;-79
2021/11/13 02:03:40;;;;;;;61.67;29.30;;;;;;;1.53;87.97;100582.38;4992779;28;20038;-79
2021/11/13 02:06:06;;;;;;;53.67;26.77;;;;;;;1.45;87.32;100581.28;4989134;28;20063;-78
2021/11/13 02:08:31;;;;;;;60.97;28.33;;;;;;;1.35;87.61;100576.63;4995900;28;20446;-79
2021/11/13 02:10:57;;;;;;;53.75;24.33;;;;;;;1.28;87.71;100576.44;4996430;28;20034;-79
2021/11/13 02:13:22;;;;;;;52.22;26.67;;;;;;;1.27;88.02;100569.44;4996435;28;20046;-79
2021/11/13 02:15:47;;;;;;;52.70;27.52;;;;;;;1.28;87.95;100576.44;4996723;28;20035;-79
2021/11/13 02:18:13;;;;;;;67.00;32.03;;;;;;;1.38;88.50;100574.97;4996650;28;20034;-79
2021/11/13 02:20:41;;;;;;;74.10;31.65;;;;;;;1.48;89.20;100570.97;4996627;28;20066;-79
2021/11/13 02:23:14;;;;;;;67.03;30.35;;;;;;;1.52;89.44;100573.72;4978646;28;20101;-79
2021/11/13 02:25:40;;;;;;;133.27;37.60;;;;;;;1.58;89.49;100569.53;4996578;28;20027;-79
2021/11/13 02:28:08;;;;;;;83.75;34.03;;;;;;;1.64;89.65;100573.19;4996613;28;20547;-78
2021/11/13 02:30:33;;;;;;;62.72;30.20;;;;;;;1.67;89.42;100568.06;4996463;28;20030;-79
2021/11/13 02:32:58;;;;;;;63.17;29.13;;;;;;;1.71;89.32;100563.88;4988596;28;20034;-81
2021/11/13 02:35:27;;;;;;;57.33;27.60;;;;;;;1.68;89.07;100576.78;4991562;28;20042;-81
2021/11/13 02:37:54;;;;;;;58.85;26.58;;;;;;;1.56;88.27;100584.22;5008412;28;20038;-82
2021/11/13 02:40:20;;;;;;;52.58;25.13;;;;;;;1.51;88.84;100582.34;5008309;28;20038;-81
2021/11/13 02:42:49;;;;;;;53.22;26.58;;;;;;;1.60;89.58;100586.06;5007322;28;20489;-81
2021/11/13 02:45:16;;;;;;;54.78;27.98;;;;;;;1.67;89.54;100582.81;5007203;28;20046;-81
2021/11/13 02:47:44;;;;;;;67.63;29.85;;;;;;;1.73;88.97;100570.88;4991181;28;20051;-81
2021/11/13 02:50:13;;;;;;;53.63;25.80;;;;;;;1.78;88.69;100577.94;5007748;28;20038;-81
2021/11/13 02:52:49;;;;;;;61.95;26.58;;;;;;;1.67;86.74;100581.09;4990616;28;20053;-81
2021/11/13 02:55:15;;;;;;;47.33;24.65;;;;;;;1.60;88.28;100583.44;4990250;28;20102;-82
2021/11/13 02:57:41;;;;;;;54.33;25.73;;;;;;;1.62;88.05;100581.78;5008755;28;20038;-81
2021/11/13 03:00:09;;;;;;;52.22;26.70;;;;;;;1.71;88.73;100575.16;4990529;28;20167;-81
2021/11/13 03:02:37;;;;;;;55.72;27.38;;;;;;;1.83;88.49;100572.03;5007798;28;20053;-80
2021/11/13 03:05:04;;;;;;;70.00;29.08;;;;;;;1.86;88.73;100561.72;4990755;28;20038;-82
2021/11/13 03:07:29;;;;;;;65.43;30.00;;;;;;;1.95;89.12;100559.38;5007270;28;20056;-81
2021/11/13 03:09:56;;;;;;;68.10;30.17;;;;;;;2.06;89.02;100567.50;5007763;28;20030;-81
2021/11/13 03:12:22;;;;;;;66.10;29.52;;;;;;;2.17;89.34;100560.88;4990744;28;20049;-81
2021/11/13 03:14:47;;;;;;;56.22;27.27;;;;;;;2.28;88.92;100549.88;5007643;28;20042;-81
2021/11/13 03:17:13;;;;;;;55.25;27.50;;;;;;;2.36;88.73;100553.59;5007250;28;20042;-80
2021/11/13 03:19:38;;;;;;;52.13;28.30;;;;;;;2.40;89.07;100553.69;4974129;28;20038;-81
2021/11/13 03:22:04;;;;;;;53.92;26.83;;;;;;;2.45;88.61;100548.63;5006403;28;20052;-81
2021/11/13 03:24:30;;;;;;;53.05;26.98;;;;;;;2.48;88.45;100545.22;5006752;28;20062;-81
2021/11/13 03:26:58;;;;;;;45.92;25.70;;;;;;;2.52;87.50;100541.84;5007945;28;20046;-80
2021/11/13 03:29:29;;;;;;;44.25;23.65;;;;;;;2.52;87.52;100541.84;5007151;28;20042;-81
2021/11/13 03:31:57;;;;;;;46.80;23.35;;;;;;;2.49;87.19;100547.88;4986238;28;20505;-81
2021/11/13 03:34:22;;;;;;;49.10;25.13;;;;;;;2.44;86.40;100543.34;4989253;28;20077;-81
2021/11/13 03:36:48;;;;;;;48.92;23.83;;;;;;;2.35;86.94;100549.19;5006979;28;20038;-81
2021/11/13 03:39:13;;;;;;;57.53;26.80;;;;;;;2.17;86.49;100546.97;5007758;28;20053;-81
2021/11/13 03:41:39;;;;;;;56.55;26.75;;;;;;;2.11;87.62;100552.88;5006555;28;20042;-81
2021/11/13 03:44:04;;;;;;;49.22;26.02;;;;;;;2.17;87.77;100550.47;4989940;28;20073;-81
2021/11/13 03:46:30;;;;;;;48.17;23.67;;;;;;;2.25;87.45;100552.38;5006965;28;20030;-81
2021/11/13 03:48:55;;;;;;;46.38;24.60;;;;;;;2.28;87.23;100553.38;5006666;28;20037;-81
2021/11/13 03:51:21;;;;;;;44.60;23.30;;;;;;;2.32;87.59;100559.53;5006016;28;20038;-81
2021/11/13 03:53:48;;;;;;;48.28;24.65;;;;;;;2.41;87.14;100559.78;5006539;28;20408;-80
2021/11/13 03:56:14;;;;;;;46.53;24.17;;;;;;;2.46;87.06;100554.69;4989300;28;20085;-81
2021/11/13 03:58:39;;;;;;;46.40;22.67;;;;;;;2.43;87.07;100550.28;5006025;28;20038;-81
2021/11/13 04:01:05;;;;;;;44.17;23.65;;;;;;;2.42;87.38;100543.31;5006534;28;20042;-81
2021/11/13 04:03:30;;;;;;;46.85;22.65;;;;;;;2.39;87.01;100554.53;4987749;28;20052;-81
2021/11/13 04:05:55;;;;;;;49.28;26.58;;;;;;;2.39;87.44;100553.66;5006201;28;20087;-81
2021/11/13 04:08:22;;;;;;;53.20;25.20;;;;;;;2.38;87.17;100549.28;4988723;28;20034;-81
2021/11/13 04:10:47;;;;;;;52.05;25.05;;;;;;;2.41;87.55;100544.16;5006663;28;20030;-81
2021/11/13 04:13:13;;;;;;;44.65;23.15;;;;;;;2.46;87.40;100545.16;5005610;28;20047;-81
2021/11/13 04:15:38;;;;;;;45.42;24.80;;;;;;;2.58;87.39;100548.09;5006438;28;20046;-81
2021/11/13 04:18:04;;;;;;;44.65;24.63;;;;;;;2.62;86.97;100539.53;5005752;28;20041;-81
2021/11/13 04:20:30;;;;;;;51.65;27.42;;;;;;;2.73;86.93;100541.53;5005416;28;20038;-81
2021/11/13 04:22:55;;;;;;;46.75;24.55;;;;;;;2.75;86.63;100535.53;4988608;28;20069;-81
2021/11/13 04:25:25;;;;;;;42.10;22.27;;;;;;;2.75;86.87;100529.41;5005633;28;20039;-80
2021/11/13 04:27:51;;;;;;;48.80;25.52;;;;;;;2.78;86.65;100535.59;5006171;28;20042;-81
2021/11/13 04:30:17;;;;;;;46.70;23.67;;;;;;;2.84;86.95;100540.06;5004763;28;20034;-81
2021/11/13 04:32:44;;;;;;;58.67;28.30;;;;;;;2.90;86.76;100540.22;5005814;28;20074;-81
2021/11/13 04:37:58;;;;;;;45.92;24.35;;;;;;;3.01;86.35;100540.47;5005646;28;20042;-81
2021/11/13 04:40:27;;;;;;;46.60;25.23;;;;;;;3.04;86.47;100531.03;4988347;28;20031;-81
2021/11/13 04:42:52;;;;;;;43.85;24.85;;;;;;;3.12;86.18;100535.53;4988149;28;20069;-81
2021/11/13 04:45:18;;;;;;;43.63;22.83;;;;;;;3.19;86.30;100529.63;5005536;28;20038;-81
2021/11/13 04:47:44;;;;;;;53.28;26.40;;;;;;;3.21;85.74;100531.41;5005448;28;20034;-81
2021/11/13 04:50:14;;;;;;;41.72;21.25;;;;;;;3.27;86.35;100522.84;5004994;28;20052;-81
2021/11/13 04:52:40;;;;;;;46.63;24.83;;;;;;;3.29;86.01;100518.56;5004277;28;20038;-81
2021/11/13 04:55:06;;;;;;;49.70;27.05;;;;;;;3.36;85.89;100515.25;5005541;28;20060;-80
2021/11/13 04:57:32;;;;;;;40.75;23.25;;;;;;;3.42;85.95;100507.53;5005955;28;20073;-81
2021/11/13 04:59:58;;;;;;;48.38;24.98;;;;;;;3.43;85.02;100496.28;4985623;28;20033;-81
2021/11/13 05:02:23;;;;;;;43.33;22.75;;;;;;;3.45;85.28;100499.78;5004991;28;20038;-81
2021/11/13 05:04:54;;;;;;;39.53;20.90;;;;;;;3.44;85.31;100500.66;5004735;28;20042;-80
2021/11/13 05:07:20;;;;;;;49.47;26.08;;;;;;;3.48;85.58;100488.53;4987383;28;20035;-81
2021/11/13 05:09:45;;;;;;;44.92;24.27;;;;;;;3.53;85.50;100496.47;5002602;28;20045;-81
2021/11/13 05:12:11;;;;;;;45.60;24.55;;;;;;;3.49;85.81;100490.31;5004990;28;20042;-81
2021/11/13 05:14:36;;;;;;;42.20;24.63;;;;;;;3.54;85.92;100488.69;4987829;28;20042;-80
2021/11/13 05:17:01;;;;;;;44.67;25.38;;;;;;;3.69;86.36;100488.09;5004379;28;20100;-81
2021/11/13 05:19:27;;;;;;;46.67;26.50;;;;;;;3.84;85.71;100485.81;5005538;28;20042;-81
2021/11/13 05:21:52;;;;;;;46.15;27.67;;;;;;;3.97;85.74;100486.94;5004565;28;20038;-81
2021/11/13 05:24:17;;;;;;;43.85;25.75;;;;;;;3.99;85.25;100490.47;5004033;28;20057;-81
2021/11/13 05:26:43;;;;;;;48.90;27.23;;;;;;;3.96;85.65;100500.88;5005007;28;20030;-80
2021/11/13 05:29:08;;;;;;;47.90;26.52;;;;;;;3.97;85.69;100493.91;5005157;28;20049;-81
2021/11/13 05:31:33;;;;;;;40.55;22.85;;;;;;;4.04;85.27;100496.69;4987077;28;20039;-80
2021/11/13 05:33:59;;;;;;;40.72;24.15;;;;;;;4.10;85.54;100493.31;4986953;28;20039;-80
2021/11/13 05:36:24;;;;;;;40.65;23.92;;;;;;;4.09;85.28;100494.16;5004400;28;20038;-81
2021/11/13 05:38:49;;;;;;;39.28;23.50;;;;;;;4.10;85.03;100502.00;5005040;28;20031;-81
2021/11/13 05:41:15;;;;;;;43.42;24.13;;;;;;;4.05;84.41;100502.78;5005881;28;20045;-80
2021/11/13 05:43:40;;;;;;;49.72;28.27;;;;;;;4.06;85.00;100507.13;5007915;28;20046;-81
2021/11/13 05:46:06;;;;;;;43.83;26.63;;;;;;;4.06;85.03;100512.34;5008976;28;20027;-81
2021/11/13 05:48:31;;;;;;;45.33;26.25;;;;;;;4.11;84.85;100508.09;4991186;28;20099;-80
2021/11/13 05:50:56;;;;;;;40.15;25.65;;;;;;;4.09;85.58;100504.63;5008658;28;20125;-80
2021/11/13 05:53:21;;;;;;;43.85;26.80;;;;;;;4.11;85.47;100505.50;5007893;28;20053;-80
2021/11/13 05:55:47;;;;;;;36.45;22.50;;;;;;;3.99;85.08;100513.09;5008188;28;20039;-81
2021/11/13 05:58:14;;;;;;;40.53;23.65;;;;;;;3.94;85.58;100516.50;5007631;28;20045;-81
2021/11/13 06:00:40;;;;;;;42.85;24.00;;;;;;;3.99;85.93;100523.56;4990123;28;20165;-81
2021/11/13 06:03:05;;;;;;;39.20;24.50;;;;;;;3.98;85.83;100527.88;5008258;28;20038;-81
2021/11/13 06:05:31;;;;;;;41.25;24.55;;;;;;;3.97;85.38;100520.91;5008489;28;20054;-81
2021/11/13 06:07:56;;;;;;;43.17;26.27;;;;;;;4.01;85.55;100517.50;5008073;28;20030;-81
2021/11/13 06:10:21;;;;;;;43.72;25.17;;;;;;;3.99;85.62;100528.78;4991760;28;20064;-81
2021/11/13 06:12:47;;;;;;;45.95;26.88;;;;;;;3.97;85.30;100520.03;5012546;28;20094;-81
2021/11/13 06:15:13;;;;;;;42.15;25.45;;;;;;;4.01;85.53;100527.97;4996101;28;20065;-81
2021/11/13 06:17:39;;;;;;;45.80;27.35;;;;;;;4.02;85.74;100521.88;5011053;28;20038;-81
2021/11/13 06:20:07;;;;;;;42.17;26.17;;;;;;;4.01;85.44;100524.44;5009992;28;20037;-81
2021/11/13 06:22:32;;;;;;;50.90;28.75;;;;;;;4.02;85.77;100528.84;5009373;28;20084;-81
2021/11/13 06:24:58;;;;;;;42.15;25.15;;;;;;;4.06;85.50;100525.41;5009311;28;20129;-82
2021/11/13 06:27:23;;;;;;;43.50;26.60;;;;;;;4.11;85.64;100529.00;5009333;28;20030;-81
2021/11/13 06:29:49;;;;;;;51.97;28.63;;;;;;;4.16;85.56;100527.38;5009267;28;20042;-81
2021/11/13 06:32:14;;;;;;;41.15;26.50;;;;;;;4.20;85.70;100529.19;4992222;28;20034;-82
2021/11/13 06:34:40;;;;;;;43.72;25.67;;;;;;;4.27;86.05;100524.97;5008938;28;20023;-81
2021/11/13 06:37:06;;;;;;;49.70;28.25;;;;;;;4.28;85.38;100527.63;5009951;28;20046;-82
2021/11/13 06:39:33;;;;;;;43.35;27.48;;;;;;;4.34;85.73;100535.56;5009034;28;20042;-81
2021/11/13 06:41:58;;;;;;;41.90;26.55;;;;;;;4.46;85.52;100534.06;4991576;28;20093;-82
2021/11/13 06:44:24;;;;;;;43.17;27.63;;;;;;;4.58;85.34;100539.47;5008115;28;20049;-81
2021/11/13 06:46:49;;;;;;;45.83;25.38;;;;;;;4.55;84.57;100536.81;5008691;28;20038;-85
2021/11/13 06:49:14;;;;;;;41.58;24.52;;;;;;;4.51;85.43;100542.88;5003496;28;20057;-79
2021/11/13 06:51:41;;;;;;;45.25;26.60;;;;;;;4.58;85.41;100545.63;5002748;28;20034;-79
2021/11/13 06:54:06;;;;;;;39.95;25.30;;;;;;;4.66;85.01;100550.97;4985633;28;20034;-79
2021/11/13 06:56:32;;;;;;;44.08;27.25;;;;;;;4.78;85.37;100550.31;5002705;28;20041;-79
2021/11/13 06:58:57;;;;;;;41.80;26.17;;;;;;;4.88;84.44;100556.59;5002755;28;20038;-79
2021/11/13 07:01:22;;;;;;;38.08;23.05;;;;;;;4.93;84.19;100549.72;5003662;28;20057;-79
2021/11/13 07:03:47;;;;;;;42.70;25.70;;;;;;;4.82;84.73;100558.25;5001914;28;20058;-79
2021/11/13 07:06:13;;;;;;;38.83;24.33;;;;;;;4.84;84.89;100558.25;5002700;28;20034;-79
2021/11/13 07:08:38;;;;;;;37.00;23.50;;;;;;;4.90;84.91;100554.84;5002386;28;20041;-79
2021/11/13 07:11:04;;;;;;;35.67;22.52;;;;;;;4.93;85.14;100561.03;5002146;28;20080;-79
2021/11/13 07:13:29;;;;;;;35.97;22.67;;;;;;;5.02;84.60;100558.56;5002618;28;20041;-79
2021/11/13 07:15:54;;;;;;;36.08;24.33;;;;;;;5.07;84.70;100561.25;4998996;28;20093;-79
2021/11/13 07:18:20;;;;;;;35.80;23.27;;;;;;;5.18;84.61;100556.22;5001558;28;20045;-79
2021/11/13 07:20:56;;;;;;;38.58;24.15;;;;;;;5.23;84.42;100557.16;5002454;28;20034;-80
2021/11/13 07:23:21;;;;;;;35.80;22.35;;;;;;;5.33;84.08;100564.31;4998150;28;20034;-79
2021/11/13 07:25:47;;;;;;;42.42;27.77;;;;;;;5.43;84.38;100567.97;4998169;28;20062;-79
2021/11/13 07:28:15;;;;;;;37.88;25.00;;;;;;;5.52;84.06;100560.22;5001915;28;20508;-80
2021/11/13 07:30:41;;;;;;;39.00;26.05;;;;;;;5.61;83.57;100560.38;5002337;28;20049;-79
2021/11/13 07:33:08;;;;;;;37.53;22.58;;;;;;;5.57;83.41;100569.03;5001708;28;20050;-79
2021/11/13 07:35:35;;;;;;;39.33;24.38;;;;;;;5.53;83.84;100575.09;4998052;28;20177;-79
2021/11/13 07:38:01;;;;;;;35.42;23.65;;;;;;;5.62;83.71;100572.59;5002133;28;20033;-79
2021/11/13 07:40:26;;;;;;;34.47;23.67;;;;;;;5.71;83.35;100575.34;5002250;28;20034;-79
2021/11/13 07:42:52;;;;;;;35.28;23.45;;;;;;;5.79;83.47;100572.84;5002033;28;20102;-79
2021/11/13 07:45:17;;;;;;;35.97;23.42;;;;;;;5.87;83.07;100565.97;4984566;28;20041;-79
2021/11/13 07:47:42;;;;;;;35.22;22.85;;;;;;;5.96;82.97;100569.59;4983103;28;20043;-79
2021/11/13 07:50:11;;;;;;;37.20;23.33;;;;;;;6.00;82.79;100572.28;4985171;28;20045;-79
2021/11/13 07:52:36;;;;;;;33.92;22.20;;;;;;;6.04;82.90;100579.31;5001739;28;20089;-79
2021/11/13 07:55:03;;;;;;;34.08;21.92;;;;;;;6.10;83.18;100592.53;5003052;28;20401;-79
2021/11/13 07:57:28;;;;;;;33.42;22.25;;;;;;;6.18;83.25;100576.00;5002516;28;20555;-79
2021/11/13 07:59:53;;;;;;;33.10;22.25;;;;;;;6.29;82.78;100577.91;4984660;28;20073;-79
2021/11/13 08:02:19;;;;;;;35.08;23.67;;;;;;;6.32;82.49;100583.16;5002319;28;20061;-79
2021/11/13 08:04:44;;;;;;;41.63;24.88;;;;;;;6.39;82.74;100585.84;4983027;28;20166;-79
2021/11/13 08:07:10;;;;;;;33.45;21.95;;;;;;;6.45;82.87;100588.56;4984405;28;20038;-79
2021/11/13 08:09:35;;;;;;;35.65;22.45;;;;;;;6.49;82.92;100580.72;5001365;28;20378;-79
2021/11/13 08:12:01;;;;;;;32.40;21.15;;;;;;;6.56;82.32;100590.44;5000974;28;20064;-79
2021/11/13 08:14:28;;;;;;;34.30;21.92;;;;;;;6.65;81.68;100588.78;5001297;28;20084;-80
2021/11/13 08:16:53;;;;;;;31.30;21.55;;;;;;;6.76;81.62;100592.41;5001093;28;20489;-79
2021/11/13 08:19:18;;;;;;;32.10;19.98;;;;;;;6.84;81.15;100595.97;5000723;28;20061;-79
2021/11/13 08:21:44;;;;;;;30.80;19.23;;;;;;;6.89;80.83;100593.38;5000466;28;20109;-79
2021/11/13 08:24:09;;;;;;;27.25;17.65;;;;;;;6.95;79.60;100581.22;5000980;28;20049;-79
2021/11/13 08:26:35;;;;;;;26.38;17.38;;;;;;;7.06;80.14;100585.69;5001387;28;20046;-79
2021/11/13 08:29:00;;;;;;;30.38;18.15;;;;;;;7.14;79.34;100584.00;5000385;28;20037;-79
2021/11/13 08:31:26;;;;;;;29.15;18.70;;;;;;;7.21;79.53;100583.19;5000196;28;20559;-79
2021/11/13 08:33:51;;;;;;;25.70;18.15;;;;;;;7.24;78.85;100586.72;4975617;28;20039;-79
2021/11/13 08:36:16;;;;;;;27.98;16.85;;;;;;;7.28;78.95;100577.09;4999374;28;20039;-79
2021/11/13 08:38:42;;;;;;;26.05;18.58;;;;;;;7.35;78.74;100585.94;4982328;28;20034;-79
2021/11/13 08:41:07;;;;;;;26.33;17.50;;;;;;;7.42;78.66;100583.38;5000535;28;20038;-79
2021/11/13 08:43:32;;;;;;;25.85;17.50;;;;;;;7.38;78.74;100580.69;4998971;28;20061;-79
2021/11/13 08:45:58;;;;;;;26.40;18.02;;;;;;;7.42;78.14;100585.13;4999471;28;20026;-79
2021/11/13 08:48:23;;;;;;;25.08;17.38;;;;;;;7.41;78.55;100581.63;4999719;28;20030;-79
2021/11/13 08:50:49;;;;;;;25.33;17.20;;;;;;;7.49;78.15;100586.03;4999365;28;20683;-79
2021/11/13 08:53:15;;;;;;;24.63;17.00;;;;;;;7.56;78.21;100580.81;4999326;28;20080;-80
2021/11/13 08:55:41;;;;;;;27.38;16.05;;;;;;;7.63;77.81;100579.13;4981262;28;20117;-80
2021/11/13 08:58:08;;;;;;;22.75;15.85;;;;;;;7.69;77.92;100573.91;4999303;28;20038;-79
2021/11/13 09:00:42;;;;;;;21.48;15.75;;;;;;;7.77;77.37;100577.47;4999188;28;20034;-79
2021/11/13 09:03:16;;;;;;;21.38;15.15;;;;;;;7.79;77.11;100578.34;4998927;28;20038;-79
2021/11/13 09:05:42;;;;;;;21.08;15.05;;;;;;;7.85;77.13;100575.75;4999125;28;20381;-79
2021/11/13 09:08:07;;;;;;;19.95;14.07;;;;;;;7.88;77.04;100575.75;4981153;28;20073;-79
2021/11/13 09:10:34;;;;;;;22.50;14.55;;;;;;;7.89;76.25;100580.16;4982365;28;20030;-79
2021/11/13 09:13:00;;;;;;;19.40;14.18;;;;;;;7.94;77.37;100579.28;4999874;28;20045;-79
2021/11/13 09:15:28;;;;;;;20.67;14.02;;;;;;;7.99;76.66;100582.81;5000172;28;20042;-79
2021/11/13 09:17:55;;;;;;;20.73;13.68;;;;;;;8.04;77.04;100581.09;4999710;28;20401;-79
2021/11/13 09:20:21;;;;;;;18.77;13.50;;;;;;;8.10;76.72;100581.16;4999523;28;20038;-79
2021/11/13 09:22:50;;;;;;;20.00;13.82;;;;;;;8.20;76.32;100577.69;4999557;28;20485;-79
2021/11/13 09:25:17;;;;;;;21.17;15.05;;;;;;;8.29;76.16;100576.84;4999937;28;20058;-79
2021/11/13 09:27:44;;;;;;;19.83;13.75;;;;;;;8.39;76.17;100580.41;4999281;28;20497;-79
2021/11/13 09:30:16;;;;;;;20.05;13.30;;;;;;;8.45;75.52;100586.56;4999790;28;20046;-79
2021/11/13 09:32:43;;;;;;;18.48;13.15;;;;;;;8.52;75.19;100574.34;4999279;28;20034;-79
2021/11/13 09:35:10;;;;;;;19.55;13.70;;;;;;;8.58;75.11;100581.34;4982684;28;20041;-79
2021/11/13 09:37:36;;;;;;;19.20;12.43;;;;;;;8.67;75.22;100578.75;4999597;28;20042;-79
2021/11/13 09:40:03;;;;;;;21.33;13.18;;;;;;;8.70;74.54;100577.00;5000226;28;20069;-79
2021/11/13 09:42:28;;;;;;;18.58;12.52;;;;;;;8.74;74.77;100575.25;5000155;28;20042;-79
2021/11/13 09:44:54;;;;;;;18.80;13.60;;;;;;;8.78;74.57;100583.16;4996499;28;20065;-79
2021/11/13 09:47:19;;;;;;;21.75;14.05;;;;;;;8.84;73.71;100581.41;4983043;28;20502;-79
2021/11/13 09:49:45;;;;;;;21.95;13.45;;;;;;;8.90;73.47;100581.41;4982427;28;20167;-79
2021/11/13 09:52:13;;;;;;;18.52;12.35;;;;;;;8.94;73.63;100588.47;4999555;28;20104;-79
2021/11/13 09:54:40;;;;;;;17.40;12.30;;;;;;;8.98;73.60;100579.66;4982258;28;20042;-80
2021/11/13 09:57:06;;;;;;;17.55;12.15;;;;;;;9.10;73.54;100581.44;5000136;28;20041;-80
2021/11/13 09:59:32;;;;;;;17.60;11.73;;;;;;;9.20;72.92;100581.47;4999999;28;20034;-79
2021/11/13 10:01:57;;;;;;;17.90;11.85;;;;;;;9.21;72.78;100583.19;5000606;28;20050;-79
2021/11/13 10:04:24;;;;;;;16.85;11.73;;;;;;;9.30;71.92;100581.44;5000029;28;20030;-80
2021/11/13 10:06:49;;;;;;;16.83;11.60;;;;;;;9.34;72.23;100581.44;4982950;28;20043;-80
2021/11/13 10:09:15;;;;;;;17.83;11.82;;;;;;;9.47;72.00;100573.53;5000733;28;20041;-79
2021/11/13 10:11:46;;;;;;;17.23;12.45;;;;;;;9.62;71.70;100570.91;4999639;28;20031;-79
2021/11/13 10:14:11;;;;;;;16.70;11.95;;;;;;;9.73;71.62;100563.84;4983061;28;20501;-79
2021/11/13 10:16:39;;;;;;;16.10;11.10;;;;;;;9.78;70.43;100561.19;4999125;28;20066;-77
2021/11/13 10:19:18;;;;;;;16.23;11.30;;;;;;;9.87;70.97;100558.53;4994866;28;20045;-78
2021/11/13 10:21:47;;;;;;;16.63;11.23;;;;;;;9.85;69.13;100557.66;4995255;28;20046;-77
2021/11/13 10:24:18;;;;;;;14.85;11.18;;;;;;;9.88;70.20;100549.75;4995140;28;20401;-77
2021/11/13 10:26:49;;;;;;;14.87;10.67;;;;;;;9.95;69.31;100546.19;4977314;28;20041;-77
2021/11/13 10:29:18;;;;;;;15.20;11.60;;;;;;;9.99;69.82;100547.94;4996851;28;20046;-77
2021/11/13 10:31:52;;;;;;;15.30;10.73;;;;;;;10.03;68.88;100544.44;4981292;28;20038;-77
2021/11/13 10:34:40;;;;;;;15.93;11.73;;;;;;;10.19;68.45;100546.97;4995124;28;20096;-77
2021/11/13 10:37:09;;;;;;;14.65;10.93;;;;;;;10.21;68.34;100543.44;4998886;28;20050;-78
2021/11/13 10:39:40;;;;;;;13.60;9.38;;;;;;;10.35;68.47;100535.53;4981862;28;20057;-78
2021/11/13 10:42:25;;;;;;;14.25;9.88;;;;;;;10.43;67.49;100543.41;4977779;28;20038;-77
2021/11/13 10:44:51;;;;;;;;;;;;;;;10.33;66.44;100539.94;4997820;28;20425;-78
2021/11/13 10:47:22;;;;;;;16.52;11.15;;;;;;;10.42;67.32;100541.63;4982273;28;19913;-77
2021/11/13 10:49:51;;;;;;;16.52;10.68;;;;;;;10.47;66.39;100546.00;4999331;28;20042;-78
2021/11/13 10:52:18;;;;;;;15.45;10.77;;;;;;;10.47;66.19;100540.72;4981975;28;20045;-78
2021/11/13 10:54:49;;;;;;;14.73;11.32;;;;;;;10.61;66.72;100542.41;4998587;28;20042;-78
2021/11/13 10:57:26;;;;;;;14.30;10.27;;;;;;;10.68;65.49;100552.03;4999691;28;20045;-78
2021/11/13 10:59:53;;;;;;;13.93;10.27;;;;;;;10.75;66.15;100545.84;4981378;28;20038;-78
2021/11/13 11:02:19;;;;;;;14.02;10.07;;;;;;;10.88;67.05;100546.63;4981087;28;20478;-78
2021/11/13 11:04:46;;;;;;;13.07;10.00;;;;;;;11.09;65.60;100546.47;4981218;28;20042;-78
2021/11/13 11:07:16;;;;;;;14.05;9.70;;;;;;;11.18;65.71;100550.78;4999078;28;20034;-77
2021/11/13 11:09:57;;;;;;;12.57;9.43;;;;;;;11.18;64.96;100541.09;4981633;28;20148;-78
2021/11/13 11:12:28;;;;;;;14.77;11.03;;;;;;;11.37;64.70;100536.56;4996188;28;20037;-77
2021/11/13 11:14:54;;;;;;;13.80;10.07;;;;;;;11.39;64.03;100529.47;4981092;28;20493;-77
2021/11/13 11:17:23;;;;;;;14.32;10.35;;;;;;;11.22;63.67;100536.69;4998766;28;20034;-78